createdAt,value
2023-01-21T00:02:23.394Z,101662.09
2023-01-21T00:04:49.873Z,101654.16
2023-01-21T00:07:16.360Z,101660.34
2023-01-21T00:09:42.821Z,101650.63
2023-01-21T00:12:09.277Z,101660.97
2023-01-21T00:14:35.696Z,101660.13
2023-01-21T00:17:02.080Z,101669.06
2023-01-21T00:19:29.574Z,101662.00
2023-01-21T00:21:56.013Z,101674.09
2023-01-21T00:24:25.235Z,101677.75
2023-01-21T00:26:52.892Z,101683.00
2023-01-21T00:29:20.204Z,101675.03
2023-01-21T00:31:46.669Z,101682.00
2023-01-21T00:34:13.306Z,101685.44
2023-01-21T00:36:39.751Z,101681.06
2023-01-21T00:39:07.891Z,101695.16
2023-01-21T00:41:34.373Z,101695.16
2023-01-21T00:44:00.808Z,101699.38
2023-01-21T00:46:27.739Z,101706.44
2023-01-21T00:48:56.029Z,101698.66
2023-01-21T00:51:23.501Z,101717.09
2023-01-21T00:53:50.009Z,101712.69
2023-01-21T00:56:16.408Z,101727.53
2023-01-21T00:58:46.163Z,101720.47
2023-01-21T01:01:18.671Z,101725.66
2023-01-21T01:03:46.651Z,101729.25
2023-01-21T01:06:22.280Z,101730.94
2023-01-21T01:08:52.586Z,101736.97
2023-01-21T01:11:21.516Z,101741.25
2023-01-21T01:13:47.967Z,101749.25
2023-01-21T01:16:16.436Z,101740.50
2023-01-21T01:18:43.569Z,101752.81
2023-01-21T01:21:15.953Z,101757.03
2023-01-21T01:23:42.903Z,101764.75
2023-01-21T01:26:15.522Z,101755.94
2023-01-21T01:28:42.685Z,101754.25
2023-01-21T01:31:12.930Z,101765.56
2023-01-21T01:33:40.113Z,101764.72
2023-01-21T01:36:10.542Z,101762.81
2023-01-21T01:38:36.942Z,101768.38
2023-01-21T01:41:04.348Z,101759.56
2023-01-21T01:43:51.322Z,101769.06
2023-01-21T01:46:17.985Z,101781.38
2023-01-21T01:48:48.724Z,101786.75
2023-01-21T01:51:17.785Z,101783.13
2023-01-21T01:53:45.482Z,101791.03
2023-01-21T01:56:12.371Z,101798.03
2023-01-21T01:58:39.876Z,101794.59
2023-01-21T02:01:06.626Z,101802.41
2023-01-21T02:03:49.227Z,101801.50
2023-01-21T02:06:17.707Z,101804.94
2023-01-21T02:08:47.685Z,101811.13
2023-01-21T02:11:19.795Z,101820.72
2023-01-21T02:13:53.284Z,101822.47
2023-01-21T02:17:01.054Z,101818.97
2023-01-21T02:19:51.903Z,101827.53
2023-01-21T02:22:30.744Z,101832.03
2023-01-21T02:25:21.377Z,101844.16
2023-01-21T02:28:05.965Z,101835.41
2023-01-21T02:30:47.201Z,101846.81
2023-01-21T02:33:22.606Z,101838.13
2023-01-21T02:36:15.169Z,101840.75
2023-01-21T02:38:53.641Z,101852.06
2023-01-21T02:41:56.130Z,101854.66
2023-01-21T02:44:37.373Z,101848.59
2023-01-21T02:47:09.540Z,101856.44
2023-01-21T02:49:59.606Z,101874.66
2023-01-21T02:52:26.406Z,101863.25
2023-01-21T02:54:55.832Z,101868.47
2023-01-21T02:57:47.058Z,101876.47
2023-01-21T03:00:22.221Z,101867.69
2023-01-21T03:03:13.278Z,101870.84
2023-01-21T03:06:01.211Z,101862.75
2023-01-21T03:08:40.643Z,101869.00
2023-01-21T03:11:16.838Z,101874.97
2023-01-21T03:14:07.960Z,101881.34
2023-01-21T03:16:59.403Z,101878.56
2023-01-21T03:19:35.583Z,101874.97
2023-01-21T03:22:06.606Z,101879.53
2023-01-21T03:24:34.545Z,101879.44
2023-01-21T03:27:02.584Z,101873.47
2023-01-21T03:29:30.925Z,101872.59
2023-01-21T03:32:03.917Z,101878.84
2023-01-21T03:34:34.595Z,101866.53
2023-01-21T03:37:21.225Z,101879.03
2023-01-21T03:39:59.800Z,101880.81
2023-01-21T03:42:27.081Z,101884.22
2023-01-21T03:44:53.951Z,101883.25
2023-01-21T03:47:31.280Z,101883.94
2023-01-21T03:50:13.659Z,101897.09
2023-01-21T03:52:41.564Z,101900.84
2023-01-21T03:55:08.747Z,101900.81
2023-01-21T03:57:35.254Z,101886.69
2023-01-21T04:00:02.167Z,101887.34
2023-01-21T04:02:28.670Z,101890.41
2023-01-21T04:04:55.118Z,101890.97
2023-01-21T04:07:21.592Z,101886.56
2023-01-21T04:09:49.768Z,101888.41
2023-01-21T04:12:16.771Z,101888.22
2023-01-21T04:14:43.332Z,101884.34
2023-01-21T04:17:09.875Z,101886.84
2023-01-21T04:19:36.314Z,101886.91
2023-01-21T04:22:02.750Z,101891.00
2023-01-21T04:24:29.167Z,101891.47
2023-01-21T04:26:55.645Z,101882.56
2023-01-21T04:29:22.309Z,101894.78
2023-01-21T04:31:48.909Z,101905.69
2023-01-21T04:34:16.675Z,101894.44
2023-01-21T04:36:43.100Z,101890.53
2023-01-21T04:39:11.255Z,101900.88
2023-01-21T04:41:37.690Z,101904.03
2023-01-21T04:44:04.254Z,101910.19
2023-01-21T04:46:30.658Z,101905.97
2023-01-21T04:48:57.067Z,101903.94
2023-01-21T04:51:23.462Z,101906.69
2023-01-21T04:53:49.889Z,101906.06
2023-01-21T04:56:16.338Z,101913.03
2023-01-21T04:58:42.841Z,101922.63
2023-01-21T05:01:09.361Z,101918.94
2023-01-21T05:03:35.804Z,101913.84
2023-01-21T05:06:02.223Z,101912.97
2023-01-21T05:08:28.635Z,101914.59
2023-01-21T05:10:55.057Z,101914.47
2023-01-21T05:13:21.501Z,101935.69
2023-01-21T05:15:47.959Z,101927.88
2023-01-21T05:18:14.462Z,101933.81
2023-01-21T05:20:40.899Z,101943.44
2023-01-21T05:23:07.482Z,101926.13
2023-01-21T05:25:34.067Z,101945.19
2023-01-21T05:28:00.557Z,101948.78
2023-01-21T05:30:27.085Z,101937.44
2023-01-21T05:32:54.765Z,101947.84
2023-01-21T05:35:22.828Z,101957.28
2023-01-21T05:37:49.379Z,101950.47
2023-01-21T05:40:16.935Z,101961.53
2023-01-21T05:42:44.287Z,101967.00
2023-01-21T05:45:14.261Z,101957.47
2023-01-21T05:47:40.739Z,101962.75
2023-01-21T05:50:07.953Z,101968.47
2023-01-21T05:52:34.386Z,101978.91
2023-01-21T05:55:02.454Z,101976.66
2023-01-21T05:57:30.278Z,101983.97
2023-01-21T05:59:56.924Z,101982.38
2023-01-21T06:02:24.950Z,101990.44
2023-01-21T06:04:51.392Z,101994.81
2023-01-21T06:07:18.771Z,101991.06
2023-01-21T06:09:45.255Z,101982.25
2023-01-21T06:12:11.671Z,101985.38
2023-01-21T06:14:38.098Z,101999.38
2023-01-21T06:17:04.632Z,102011.25
2023-01-21T06:19:31.183Z,102007.91
2023-01-21T06:21:57.622Z,102013.78
2023-01-21T06:24:24.032Z,102011.00
2023-01-21T06:26:50.416Z,102018.97
2023-01-21T06:29:16.956Z,102011.22
2023-01-21T06:31:43.447Z,102021.06
2023-01-21T06:34:12.459Z,102016.16
2023-01-21T06:36:40.858Z,102024.09
2023-01-21T06:39:07.283Z,102023.41
2023-01-21T06:41:33.728Z,102030.59
2023-01-21T06:44:00.145Z,102033.13
2023-01-21T06:46:26.659Z,102037.34
2023-01-21T06:48:54.276Z,102040.66
2023-01-21T06:51:20.756Z,102047.03
2023-01-21T06:53:47.213Z,102048.41
2023-01-21T06:56:13.638Z,102053.56
2023-01-21T06:58:40.024Z,102050.50
2023-01-21T07:01:06.491Z,102054.25
2023-01-21T07:03:32.962Z,102064.69
2023-01-21T07:05:59.381Z,102067.03
2023-01-21T07:08:25.802Z,102074.16
2023-01-21T07:10:52.298Z,102073.06
2023-01-21T07:13:18.697Z,102080.31
2023-01-21T07:15:45.147Z,102076.94
2023-01-21T07:18:11.569Z,102086.44
2023-01-21T07:20:40.913Z,102095.16
2023-01-21T07:23:07.429Z,102087.41
2023-01-21T07:25:36.024Z,102080.06
2023-01-21T07:28:02.491Z,102088.88
2023-01-21T07:30:28.896Z,102078.34
2023-01-21T07:32:55.316Z,102086.25
2023-01-21T07:35:21.738Z,102090.69
2023-01-21T07:37:48.178Z,102084.41
2023-01-21T07:40:14.698Z,102096.69
2023-01-21T07:42:41.096Z,102086.56
2023-01-21T07:45:08.509Z,102103.78
2023-01-21T07:47:34.982Z,102109.16
2023-01-21T07:50:04.983Z,102105.75
2023-01-21T07:52:32.163Z,102109.81
2023-01-21T07:54:58.627Z,102117.03
2023-01-21T07:57:25.099Z,102123.91
2023-01-21T07:59:51.493Z,102115.03
2023-01-21T08:02:17.948Z,102111.59
2023-01-21T08:04:44.451Z,102119.69
2023-01-21T08:07:13.184Z,102117.91
2023-01-21T08:09:40.119Z,102118.81
2023-01-21T08:12:07.499Z,102116.97
2023-01-21T08:14:34.355Z,102110.94
2023-01-21T08:17:01.155Z,102116.16
2023-01-21T08:19:27.599Z,102111.75
2023-01-21T08:21:54.037Z,102106.63
2023-01-21T08:24:20.493Z,102115.31
2023-01-21T08:26:46.936Z,102106.59
2023-01-21T08:29:13.337Z,102113.50
2023-01-21T08:31:39.931Z,102110.09
2023-01-21T08:34:06.430Z,102100.44
2023-01-21T08:36:32.937Z,102103.13
2023-01-21T08:39:01.778Z,102112.72
2023-01-21T08:41:28.331Z,102106.63
2023-01-21T08:43:54.706Z,102101.34
2023-01-21T08:46:21.138Z,102104.84
2023-01-21T08:48:47.577Z,102108.28
2023-01-21T08:51:14.139Z,102103.03
2023-01-21T08:53:40.599Z,102113.59
2023-01-21T08:56:07.132Z,102102.25
2023-01-21T08:58:33.803Z,102103.97
2023-01-21T09:01:07.682Z,102101.19
2023-01-21T09:03:34.159Z,102109.88
2023-01-21T09:06:02.124Z,102106.22
2023-01-21T09:08:29.273Z,102108.09
2023-01-21T09:11:02.515Z,102115.06
2023-01-21T09:13:37.839Z,102117.63
2023-01-21T09:16:15.676Z,102117.88
2023-01-21T09:18:43.093Z,102116.09
2023-01-21T09:21:10.856Z,102119.28
2023-01-21T09:23:38.534Z,102125.34
2023-01-21T09:26:18.284Z,102126.34
2023-01-21T09:28:47.827Z,102129.19
2023-01-21T09:31:16.748Z,102134.94
2023-01-21T09:33:45.667Z,102127.41
2023-01-21T09:36:21.968Z,102115.13
2023-01-21T09:38:49.634Z,102135.91
2023-01-21T09:41:24.844Z,102140.56
2023-01-21T09:44:06.012Z,102136.19
2023-01-21T09:46:53.038Z,102132.38
2023-01-21T09:49:28.033Z,102134.25
2023-01-21T09:52:24.491Z,102131.53
2023-01-21T09:54:51.095Z,102132.22
2023-01-21T09:57:26.301Z,102133.25
2023-01-21T10:00:18.477Z,102136.63
2023-01-21T10:03:16.261Z,102132.13
2023-01-21T10:05:50.724Z,102141.13
2023-01-21T10:08:38.416Z,102142.72
2023-01-21T10:11:46.059Z,102133.97
2023-01-21T10:14:24.972Z,102137.56
2023-01-21T10:17:10.205Z,102141.16
2023-01-21T10:19:46.327Z,102141.81
2023-01-21T10:22:17.260Z,102143.91
2023-01-21T10:24:49.664Z,102143.88
2023-01-21T10:27:21.219Z,102134.13
2023-01-21T10:29:52.727Z,102139.19
2023-01-21T10:32:24.555Z,102146.16
2023-01-21T10:34:52.820Z,102140.00
2023-01-21T10:37:41.060Z,102142.19
2023-01-21T10:40:48.541Z,102147.22
2023-01-21T10:43:46.423Z,102138.50
2023-01-21T10:46:31.308Z,102140.09
2023-01-21T10:49:20.732Z,102130.28
2023-01-21T10:52:03.617Z,102140.34
2023-01-21T10:54:51.856Z,102143.13
2023-01-21T10:57:33.496Z,102156.94
2023-01-21T11:00:02.711Z,102140.00
2023-01-21T11:02:34.059Z,102149.31
2023-01-21T11:05:04.311Z,102147.19
2023-01-21T11:07:38.947Z,102140.06
2023-01-21T11:10:07.117Z,102144.56
2023-01-21T11:12:33.584Z,102145.63
2023-01-21T11:15:12.361Z,102144.47
2023-01-21T11:17:41.451Z,102141.44
2023-01-21T11:20:28.206Z,102133.81
2023-01-21T11:22:54.992Z,102136.53
2023-01-21T11:25:31.907Z,102138.66
2023-01-21T11:27:58.314Z,102128.59
2023-01-21T11:30:50.943Z,102123.47
2023-01-21T11:33:27.514Z,102138.25
2023-01-21T11:35:55.203Z,102123.81
2023-01-21T11:38:35.318Z,102128.31
2023-01-21T11:41:01.709Z,102125.16
2023-01-21T11:43:40.070Z,102125.03
2023-01-21T11:46:35.427Z,102127.47
2023-01-21T11:49:08.064Z,102131.47
2023-01-21T11:51:42.383Z,102121.09
2023-01-21T11:54:23.337Z,102133.50
2023-01-21T11:56:52.602Z,102122.44
2023-01-21T11:59:25.960Z,102124.25
2023-01-21T12:02:15.920Z,102127.31
2023-01-21T12:04:52.297Z,102116.88
2023-01-21T12:07:32.064Z,102123.03
2023-01-21T12:10:14.534Z,102117.84
2023-01-21T12:12:59.231Z,102117.28
2023-01-21T12:15:56.174Z,102110.91
2023-01-21T12:18:25.617Z,102117.94
2023-01-21T12:21:05.441Z,102122.03
2023-01-21T12:23:41.013Z,102115.66
2023-01-21T12:26:36.687Z,102116.66
2023-01-21T12:29:24.997Z,102096.94
2023-01-21T12:32:05.936Z,102112.75
2023-01-21T12:34:40.006Z,102106.31
2023-01-21T12:37:12.479Z,102106.13
2023-01-21T12:39:40.996Z,102107.78
2023-01-21T12:42:29.181Z,102103.31
2023-01-21T12:45:01.326Z,102097.81
2023-01-21T12:47:36.011Z,102088.22
2023-01-21T12:50:35.160Z,102104.34
2023-01-21T12:53:44.460Z,102088.59
2023-01-21T12:56:37.272Z,102087.91
2023-01-21T12:59:15.954Z,102091.94
2023-01-21T13:01:52.511Z,102084.63
2023-01-21T13:04:42.073Z,102093.69
2023-01-21T13:07:31.872Z,102092.38
2023-01-21T13:10:15.426Z,102090.97
2023-01-21T13:12:46.362Z,102089.81
2023-01-21T13:15:18.606Z,102089.03
2023-01-21T13:17:52.222Z,102083.97
2023-01-21T13:20:21.316Z,102086.56
2023-01-21T13:23:20.149Z,102085.88
2023-01-21T13:25:56.992Z,102078.94
2023-01-21T13:28:29.074Z,102094.25
2023-01-21T13:31:20.092Z,102097.19
2023-01-21T13:33:47.430Z,102093.19
2023-01-21T13:36:29.340Z,102096.56
2023-01-21T13:39:11.173Z,102081.59
2023-01-21T13:41:54.340Z,102088.09
2023-01-21T13:44:56.783Z,102096.13
2023-01-21T13:47:29.794Z,102090.19
2023-01-21T13:50:18.087Z,102084.81
2023-01-21T13:53:23.237Z,102096.53
2023-01-21T13:56:07.711Z,102100.81
2023-01-21T13:58:53.530Z,102097.47
2023-01-21T14:01:23.065Z,102101.44
2023-01-21T14:04:15.737Z,102102.31
2023-01-21T14:07:03.996Z,102097.22
2023-01-21T14:09:38.681Z,102095.03
2023-01-21T14:12:20.935Z,102095.16
2023-01-21T14:15:19.887Z,102098.59
2023-01-21T14:18:12.802Z,102092.63
2023-01-21T14:21:07.177Z,102094.28
2023-01-21T14:23:49.487Z,102093.22
2023-01-21T14:26:48.298Z,102090.84
2023-01-21T14:29:23.276Z,102084.25
2023-01-21T14:32:03.789Z,102091.94
2023-01-21T14:34:39.501Z,102091.50
2023-01-21T14:37:30.794Z,102089.50
2023-01-21T14:40:17.033Z,102084.22
2023-01-21T14:42:49.387Z,102080.03
2023-01-21T14:45:25.706Z,102073.53
2023-01-21T14:47:54.251Z,102080.44
2023-01-21T14:50:55.063Z,102071.47
2023-01-21T14:53:26.174Z,102070.78
2023-01-21T14:56:26.596Z,102080.16
2023-01-21T14:59:06.488Z,102071.19
2023-01-21T15:01:47.056Z,102065.66
2023-01-21T15:04:23.167Z,102071.97
2023-01-21T15:06:51.893Z,102076.47
2023-01-21T15:09:28.378Z,102076.16
2023-01-21T15:12:05.624Z,102085.63
2023-01-21T15:14:39.121Z,102085.72
2023-01-21T15:17:45.038Z,102089.13
2023-01-21T15:20:39.480Z,102085.78
2023-01-21T15:23:36.151Z,102080.75
2023-01-21T15:26:02.560Z,102083.81
2023-01-21T15:28:55.689Z,102080.78
2023-01-21T15:31:23.277Z,102074.84
2023-01-21T15:33:55.388Z,102072.75
2023-01-21T15:36:24.870Z,102070.25
2023-01-21T15:38:54.083Z,102072.78
2023-01-21T15:41:56.327Z,102078.53
2023-01-21T15:44:48.052Z,102071.78
2023-01-21T15:47:30.135Z,102084.63
2023-01-21T15:50:18.063Z,102068.75
2023-01-21T15:53:09.563Z,102074.84
2023-01-21T15:56:08.314Z,102069.78
2023-01-21T15:58:43.895Z,102061.19
2023-01-21T16:01:26.769Z,102066.78
2023-01-21T16:04:11.320Z,102062.47
2023-01-21T16:07:02.527Z,102054.84
2023-01-21T16:09:35.043Z,102056.59
2023-01-21T16:12:14.665Z,102055.19
2023-01-21T16:15:24.345Z,102058.72
2023-01-21T16:17:59.792Z,102069.75
2023-01-21T16:20:26.271Z,102068.56
2023-01-21T16:22:56.782Z,102070.41
2023-01-21T16:25:25.396Z,102066.53
2023-01-21T16:27:53.746Z,102077.88
2023-01-21T16:30:22.692Z,102059.16
2023-01-21T16:33:13.607Z,102061.34
2023-01-21T16:35:56.015Z,102066.28
2023-01-21T16:38:26.901Z,102070.06
2023-01-21T16:41:08.357Z,102063.59
2023-01-21T16:44:04.208Z,102068.31
2023-01-21T16:46:36.196Z,102059.66
2023-01-21T16:49:04.921Z,102072.22
2023-01-21T16:51:34.721Z,102058.75
2023-01-21T16:54:19.648Z,102067.97
2023-01-21T16:56:53.429Z,102064.72
2023-01-21T16:59:42.527Z,102057.31
2023-01-21T17:02:31.464Z,102057.09
2023-01-21T17:05:00.274Z,102057.19
2023-01-21T17:07:41.972Z,102068.16
2023-01-21T17:10:19.516Z,102062.47
2023-01-21T17:13:07.254Z,102062.34
2023-01-21T17:15:41.716Z,102065.72
2023-01-21T17:18:31.364Z,102072.13
2023-01-21T17:21:08.962Z,102061.41
2023-01-21T17:23:51.452Z,102056.31
2023-01-21T17:26:45.591Z,102059.19
2023-01-21T17:29:20.206Z,102068.25
2023-01-21T17:31:55.848Z,102067.59
2023-01-21T17:34:24.727Z,102060.34
2023-01-21T17:36:52.746Z,102071.38
2023-01-21T17:39:48.086Z,102078.84
2023-01-21T17:42:22.682Z,102075.59
2023-01-21T17:44:53.377Z,102075.06
2023-01-21T17:47:33.617Z,102068.09
2023-01-21T17:50:21.102Z,102083.25
2023-01-21T17:52:56.204Z,102099.50
2023-01-21T17:55:27.236Z,102074.31
2023-01-21T17:57:54.326Z,102085.25
2023-01-21T18:00:26.681Z,102080.50
2023-01-21T18:02:53.377Z,102085.53
2023-01-21T18:05:19.905Z,102075.78
2023-01-21T18:07:46.420Z,102087.06
2023-01-21T18:10:19.582Z,102076.56
2023-01-21T18:12:46.141Z,102068.19
2023-01-21T18:15:14.718Z,102064.56
2023-01-21T18:17:46.501Z,102062.81
2023-01-21T18:20:27.145Z,102060.56
2023-01-21T18:22:55.385Z,102063.94
2023-01-21T18:25:23.565Z,102070.34
2023-01-21T18:27:54.906Z,102071.22
2023-01-21T18:30:28.595Z,102061.81
2023-01-21T18:32:56.373Z,102064.19
2023-01-21T18:35:27.315Z,102055.28
2023-01-21T18:37:54.067Z,102053.69
2023-01-21T18:40:22.693Z,102041.44
2023-01-21T18:42:52.222Z,102054.47
2023-01-21T18:45:22.396Z,102046.78
2023-01-21T18:47:50.419Z,102033.16
2023-01-21T18:50:22.447Z,102041.34
2023-01-21T18:52:49.113Z,102043.03
2023-01-21T18:55:17.338Z,102039.66
2023-01-21T18:57:46.630Z,102042.09
2023-01-21T19:00:19.572Z,102036.38
2023-01-21T19:02:46.632Z,102043.44
2023-01-21T19:05:13.185Z,102043.34
2023-01-21T19:07:39.574Z,102040.47
2023-01-21T19:10:06.912Z,102040.72
2023-01-21T19:12:33.329Z,102035.75
2023-01-21T19:15:00.062Z,102027.13
2023-01-21T19:17:29.680Z,102037.53
2023-01-21T19:19:57.108Z,102024.91
2023-01-21T19:22:23.751Z,102035.66
2023-01-21T19:24:50.541Z,102012.13
2023-01-21T19:27:29.108Z,102016.81
2023-01-21T19:29:55.764Z,102014.41
2023-01-21T19:32:22.226Z,102022.41
2023-01-21T19:34:48.665Z,102039.28
2023-01-21T19:37:18.303Z,102040.22
2023-01-21T19:39:44.834Z,102030.75
2023-01-21T19:42:13.428Z,102039.56
2023-01-21T19:44:40.649Z,102038.84
2023-01-21T19:47:17.443Z,102029.13
2023-01-21T19:49:44.359Z,102030.13
2023-01-21T19:52:13.950Z,102005.66
2023-01-21T19:54:40.504Z,102000.69
2023-01-21T19:57:13.567Z,102005.06
2023-01-21T19:59:41.177Z,102036.81
2023-01-21T20:02:10.705Z,102051.34
2023-01-21T20:04:37.732Z,102052.53
2023-01-21T20:07:04.697Z,102039.25
2023-01-21T20:09:32.075Z,102048.91
2023-01-21T20:11:58.489Z,102036.63
2023-01-21T20:14:24.959Z,102046.28
2023-01-21T20:16:54.151Z,102027.34
2023-01-21T20:19:22.501Z,102034.72
2023-01-21T20:22:01.318Z,102032.25
2023-01-21T20:24:30.101Z,102024.53
2023-01-21T20:26:57.034Z,102017.34
2023-01-21T20:29:23.506Z,102005.31
2023-01-21T20:31:51.868Z,102004.81
2023-01-21T20:34:18.378Z,102006.16
2023-01-21T20:36:48.306Z,102011.19
2023-01-21T20:39:15.088Z,101987.25
2023-01-21T20:41:43.287Z,101991.84
2023-01-21T20:44:09.731Z,101998.50
2023-01-21T20:46:36.203Z,102009.56
2023-01-21T20:49:02.854Z,102018.47
2023-01-21T20:51:29.637Z,102014.78
2023-01-21T20:53:56.096Z,102015.69
2023-01-21T20:56:26.970Z,102010.16
2023-01-21T20:58:54.126Z,102011.03
2023-01-21T21:01:22.917Z,102008.88
2023-01-21T21:03:49.954Z,102015.94
2023-01-21T21:06:28.680Z,102013.91
2023-01-21T21:08:55.478Z,102027.03
2023-01-21T21:11:22.058Z,102020.88
2023-01-21T21:13:51.783Z,102019.97
2023-01-21T21:16:21.703Z,102027.19
2023-01-21T21:18:48.851Z,102021.72
2023-01-21T21:21:16.661Z,102027.88
2023-01-21T21:23:46.570Z,102022.78
2023-01-21T21:26:18.366Z,102033.16
2023-01-21T21:28:45.896Z,102031.56
2023-01-21T21:31:17.249Z,102029.81
2023-01-21T21:33:43.897Z,102030.69
2023-01-21T21:36:13.647Z,102033.16
2023-01-21T21:38:40.374Z,102026.13
2023-01-21T21:41:25.390Z,102029.81
2023-01-21T21:43:51.785Z,102019.19
2023-01-21T21:46:36.489Z,102021.13
2023-01-21T21:49:02.894Z,102011.34
2023-01-21T21:51:31.664Z,102028.97
2023-01-21T21:53:58.097Z,102025.34
2023-01-21T21:56:24.577Z,102026.34
2023-01-21T21:58:51.447Z,102030.66
2023-01-21T22:01:20.527Z,102027.16
2023-01-21T22:03:47.304Z,102027.78
2023-01-21T22:06:14.644Z,102022.78
2023-01-21T22:08:42.598Z,102026.22
2023-01-21T22:11:15.040Z,102034.03
2023-01-21T22:13:43.435Z,102033.34
2023-01-21T22:16:14.939Z,102030.66
2023-01-21T22:18:41.982Z,102019.25
2023-01-21T22:21:16.771Z,102027.19
2023-01-21T22:23:43.433Z,102033.31
2023-01-21T22:26:15.323Z,102035.09
2023-01-21T22:28:43.312Z,102038.44
2023-01-21T22:31:13.725Z,102038.56
2023-01-21T22:33:40.409Z,102029.69
2023-01-21T22:36:09.396Z,102028.97
2023-01-21T22:38:38.971Z,102032.47
2023-01-21T22:41:07.695Z,102036.75
2023-01-21T22:43:34.747Z,102027.25
2023-01-21T22:46:01.714Z,102021.00
2023-01-21T22:48:28.312Z,102031.59
2023-01-21T22:50:57.143Z,102027.03
2023-01-21T22:53:24.452Z,102030.53
2023-01-21T22:55:59.939Z,102027.09
2023-01-21T22:58:28.330Z,102026.16
2023-01-21T23:00:55.574Z,102018.34
2023-01-21T23:03:22.938Z,102022.91
2023-01-21T23:05:50.241Z,102020.19
2023-01-21T23:08:17.729Z,102021.06
2023-01-21T23:10:45.022Z,102017.41
2023-01-21T23:13:15.933Z,102015.78
2023-01-21T23:15:43.891Z,102010.53
2023-01-21T23:18:10.567Z,102005.28
2023-01-21T23:20:37.254Z,102015.91
2023-01-21T23:23:03.659Z,102001.94
2023-01-21T23:25:30.052Z,101998.28
2023-01-21T23:27:56.471Z,102008.06
2023-01-21T23:30:22.863Z,102003.69
2023-01-21T23:32:49.268Z,102000.16
2023-01-21T23:35:15.892Z,101993.16
2023-01-21T23:37:42.282Z,102000.16
2023-01-21T23:40:09.158Z,102001.03
2023-01-21T23:42:35.542Z,101992.19
2023-01-21T23:45:02.308Z,101992.31
2023-01-21T23:47:29.026Z,101998.38
2023-01-21T23:49:55.439Z,101999.28
2023-01-21T23:52:21.829Z,101994.97
2023-01-21T23:54:48.209Z,101986.25
2023-01-21T23:57:14.674Z,102006.28
2023-01-21T23:59:41.157Z,101998.38
